sensor_id;sensor_type;location;lat;lon;timestamp;temperature;humidity
33095;DHT22;19459;53.044;8.910;2022-07-29T00:00:59;14.70;99.90
33095;DHT22;19459;53.044;8.910;2022-07-29T00:03:25;14.70;99.90
33095;DHT22;19459;53.044;8.910;2022-07-29T00:05:50;14.60;99.90
33095;DHT22;19459;53.044;8.910;2022-07-29T00:08:18;14.60;99.90
33095;DHT22;19459;53.044;8.910;2022-07-29T00:10:44;14.60;99.90
33095;DHT22;19459;53.044;8.910;2022-07-29T00:13:10;14.60;99.90
33095;DHT22;19459;53.044;8.910;2022-07-29T00:15:36;14.60;99.90
33095;DHT22;19459;53.044;8.910;2022-07-29T00:18:02;14.50;99.90
33095;DHT22;19459;53.044;8.910;2022-07-29T00:20:28;14.50;99.90
33095;DHT22;19459;53.044;8.910;2022-07-29T00:22:54;14.50;99.90
33095;DHT22;19459;53.044;8.910;2022-07-29T00:25:19;14.50;99.90
33095;DHT22;19459;53.044;8.910;2022-07-29T00:27:45;14.50;99.90
33095;DHT22;19459;53.044;8.910;2022-07-29T00:30:12;14.50;99.90
33095;DHT22;19459;53.044;8.910;2022-07-29T00:32:38;14.50;99.90
33095;DHT22;19459;53.044;8.910;2022-07-29T00:35:04;14.40;99.90
33095;DHT22;19459;53.044;8.910;2022-07-29T00:37:52;14.40;99.90
33095;DHT22;19459;53.044;8.910;2022-07-29T00:40:18;14.40;99.90
33095;DHT22;19459;53.044;8.910;2022-07-29T00:42:48;14.40;99.90
33095;DHT22;19459;53.044;8.910;2022-07-29T00:45:15;14.40;99.90
33095;DHT22;19459;53.044;8.910;2022-07-29T00:47:42;14.30;99.90
33095;DHT22;19459;53.044;8.910;2022-07-29T00:50:10;14.30;99.90
33095;DHT22;19459;53.044;8.910;2022-07-29T00:52:38;14.30;99.90
33095;DHT22;19459;53.044;8.910;2022-07-29T00:55:07;14.30;99.90
33095;DHT22;19459;53.044;8.910;2022-07-29T00:57:35;14.20;99.90
33095;DHT22;19459;53.044;8.910;2022-07-29T01:00:03;14.20;99.90
33095;DHT22;19459;53.044;8.910;2022-07-29T01:02:30;14.30;99.90
33095;DHT22;19459;53.044;8.910;2022-07-29T01:04:58;14.20;99.90
33095;DHT22;19459;53.044;8.910;2022-07-29T01:07:30;14.20;99.90
33095;DHT22;19459;53.044;8.910;2022-07-29T01:10:00;14.20;99.90
33095;DHT22;19459;53.044;8.910;2022-07-29T01:12:29;14.20;99.90
33095;DHT22;19459;53.044;8.910;2022-07-29T01:15:00;14.20;99.90
33095;DHT22;19459;53.044;8.910;2022-07-29T01:17:36;14.20;99.90
33095;DHT22;19459;53.044;8.910;2022-07-29T01:31:47;14.10;99.90
33095;DHT22;19459;53.044;8.910;2022-07-29T01:35:21;14.10;99.90
33095;DHT22;19459;53.044;8.910;2022-07-29T01:40:29;14.10;99.90
33095;DHT22;19459;53.044;8.910;2022-07-29T01:43:03;14.00;99.90
33095;DHT22;19459;53.044;8.910;2022-07-29T01:45:40;14.10;99.90
33095;DHT22;19459;53.044;8.910;2022-07-29T01:48:19;14.10;99.90
33095;DHT22;19459;53.044;8.910;2022-07-29T01:50:48;14.10;99.90
33095;DHT22;19459;53.044;8.910;2022-07-29T01:53:29;14.10;99.90
33095;DHT22;19459;53.044;8.910;2022-07-29T01:55:58;14.10;99.90
33095;DHT22;19459;53.044;8.910;2022-07-29T01:58:25;14.10;99.90
33095;DHT22;19459;53.044;8.910;2022-07-29T02:00:53;14.10;99.90
33095;DHT22;19459;53.044;8.910;2022-07-29T02:03:21;14.00;99.90
33095;DHT22;19459;53.044;8.910;2022-07-29T02:05:49;14.10;99.90
33095;DHT22;19459;53.044;8.910;2022-07-29T02:08:17;14.10;99.90
33095;DHT22;19459;53.044;8.910;2022-07-29T02:10:45;14.10;99.90
33095;DHT22;19459;53.044;8.910;2022-07-29T02:13:13;14.00;99.90
33095;DHT22;19459;53.044;8.910;2022-07-29T02:15:42;14.00;99.90
33095;DHT22;19459;53.044;8.910;2022-07-29T02:18:16;14.00;99.90
33095;DHT22;19459;53.044;8.910;2022-07-29T02:20:49;14.00;99.90
33095;DHT22;19459;53.044;8.910;2022-07-29T02:23:20;14.00;99.90
33095;DHT22;19459;53.044;8.910;2022-07-29T02:25:55;14.00;99.90
33095;DHT22;19459;53.044;8.910;2022-07-29T02:28:25;14.00;99.90
33095;DHT22;19459;53.044;8.910;2022-07-29T02:30:56;14.00;99.90
33095;DHT22;19459;53.044;8.910;2022-07-29T02:33:24;14.10;99.90
33095;DHT22;19459;53.044;8.910;2022-07-29T02:35:51;14.00;99.90
33095;DHT22;19459;53.044;8.910;2022-07-29T02:38:18;14.00;99.90
33095;DHT22;19459;53.044;8.910;2022-07-29T02:41:05;14.10;99.90
33095;DHT22;19459;53.044;8.910;2022-07-29T02:43:34;14.10;99.90
33095;DHT22;19459;53.044;8.910;2022-07-29T02:46:03;14.10;99.90
33095;DHT22;19459;53.044;8.910;2022-07-29T02:48:46;14.10;99.90
33095;DHT22;19459;53.044;8.910;2022-07-29T02:51:27;14.10;99.90
33095;DHT22;19459;53.044;8.910;2022-07-29T02:53:57;14.10;99.90
33095;DHT22;19459;53.044;8.910;2022-07-29T02:56:27;14.10;99.90
33095;DHT22;19459;53.044;8.910;2022-07-29T02:59:03;14.10;99.90
33095;DHT22;19459;53.044;8.910;2022-07-29T03:01:32;14.10;99.90
33095;DHT22;19459;53.044;8.910;2022-07-29T03:04:01;14.10;99.90
33095;DHT22;19459;53.044;8.910;2022-07-29T03:06:30;14.10;99.90
33095;DHT22;19459;53.044;8.910;2022-07-29T03:08:57;14.10;99.90
33095;DHT22;19459;53.044;8.910;2022-07-29T03:11:24;14.20;99.90
33095;DHT22;19459;53.044;8.910;2022-07-29T03:13:51;14.20;99.90
33095;DHT22;19459;53.044;8.910;2022-07-29T03:16:19;14.10;99.90
33095;DHT22;19459;53.044;8.910;2022-07-29T03:18:45;14.20;99.90
33095;DHT22;19459;53.044;8.910;2022-07-29T03:21:12;14.20;99.90
33095;DHT22;19459;53.044;8.910;2022-07-29T03:23:43;14.20;99.90
33095;DHT22;19459;53.044;8.910;2022-07-29T03:26:14;14.20;99.90
33095;DHT22;19459;53.044;8.910;2022-07-29T03:28:44;14.20;99.90
33095;DHT22;19459;53.044;8.910;2022-07-29T03:31:15;14.20;99.90
33095;DHT22;19459;53.044;8.910;2022-07-29T03:33:42;14.20;99.90
33095;DHT22;19459;53.044;8.910;2022-07-29T03:36:08;14.10;99.90
33095;DHT22;19459;53.044;8.910;2022-07-29T03:38:35;14.20;99.90
33095;DHT22;19459;53.044;8.910;2022-07-29T03:41:09;14.20;99.90
33095;DHT22;19459;53.044;8.910;2022-07-29T03:43:38;14.20;99.90
33095;DHT22;19459;53.044;8.910;2022-07-29T03:46:07;14.10;99.90
33095;DHT22;19459;53.044;8.910;2022-07-29T03:48:36;14.10;99.90
33095;DHT22;19459;53.044;8.910;2022-07-29T03:51:06;14.10;99.90
33095;DHT22;19459;53.044;8.910;2022-07-29T03:53:32;14.20;99.90
33095;DHT22;19459;53.044;8.910;2022-07-29T03:56:02;14.10;99.90
33095;DHT22;19459;53.044;8.910;2022-07-29T03:58:30;14.20;99.90
33095;DHT22;19459;53.044;8.910;2022-07-29T04:00:59;14.10;99.90
33095;DHT22;19459;53.044;8.910;2022-07-29T04:03:25;14.20;99.90
33095;DHT22;19459;53.044;8.910;2022-07-29T04:06:01;14.20;99.90
33095;DHT22;19459;53.044;8.910;2022-07-29T04:08:31;14.20;99.90
33095;DHT22;19459;53.044;8.910;2022-07-29T04:11:01;14.20;99.90
33095;DHT22;19459;53.044;8.910;2022-07-29T04:13:27;14.20;99.90
33095;DHT22;19459;53.044;8.910;2022-07-29T04:15:53;14.20;99.90
33095;DHT22;19459;53.044;8.910;2022-07-29T04:18:19;14.30;99.90
33095;DHT22;19459;53.044;8.910;2022-07-29T04:20:45;14.30;99.90
33095;DHT22;19459;53.044;8.910;2022-07-29T04:23:10;14.30;99.90
33095;DHT22;19459;53.044;8.910;2022-07-29T04:25:40;14.30;99.90
33095;DHT22;19459;53.044;8.910;2022-07-29T04:28:07;14.30;99.90
33095;DHT22;19459;53.044;8.910;2022-07-29T04:30:34;14.30;99.90
33095;DHT22;19459;53.044;8.910;2022-07-29T04:33:02;14.30;99.90
33095;DHT22;19459;53.044;8.910;2022-07-29T04:35:30;14.40;99.90
33095;DHT22;19459;53.044;8.910;2022-07-29T04:37:59;14.30;99.90
33095;DHT22;19459;53.044;8.910;2022-07-29T04:40:24;14.40;99.90
33095;DHT22;19459;53.044;8.910;2022-07-29T04:42:50;14.40;99.90
33095;DHT22;19459;53.044;8.910;2022-07-29T04:45:16;14.40;99.90
33095;DHT22;19459;53.044;8.910;2022-07-29T04:47:42;14.50;99.90
33095;DHT22;19459;53.044;8.910;2022-07-29T04:50:08;14.50;99.90
33095;DHT22;19459;53.044;8.910;2022-07-29T04:52:35;14.50;99.90
33095;DHT22;19459;53.044;8.910;2022-07-29T04:55:03;14.50;99.90
33095;DHT22;19459;53.044;8.910;2022-07-29T04:57:30;14.50;99.90
33095;DHT22;19459;53.044;8.910;2022-07-29T04:59:55;14.60;99.90
33095;DHT22;19459;53.044;8.910;2022-07-29T05:02:21;14.60;99.90
33095;DHT22;19459;53.044;8.910;2022-07-29T05:04:47;14.60;99.90
33095;DHT22;19459;53.044;8.910;2022-07-29T05:07:14;14.70;99.90
33095;DHT22;19459;53.044;8.910;2022-07-29T05:09:40;14.80;99.90
33095;DHT22;19459;53.044;8.910;2022-07-29T05:12:06;14.70;99.90
33095;DHT22;19459;53.044;8.910;2022-07-29T05:14:34;14.80;99.90
33095;DHT22;19459;53.044;8.910;2022-07-29T05:17:00;14.90;99.90
33095;DHT22;19459;53.044;8.910;2022-07-29T05:19:26;15.00;99.90
33095;DHT22;19459;53.044;8.910;2022-07-29T05:21:52;15.00;99.90
33095;DHT22;19459;53.044;8.910;2022-07-29T05:24:18;15.10;99.90
33095;DHT22;19459;53.044;8.910;2022-07-29T05:26:44;15.10;99.90
33095;DHT22;19459;53.044;8.910;2022-07-29T05:29:09;15.10;99.90
33095;DHT22;19459;53.044;8.910;2022-07-29T05:31:36;15.20;99.90
33095;DHT22;19459;53.044;8.910;2022-07-29T05:34:02;15.20;99.90
33095;DHT22;19459;53.044;8.910;2022-07-29T05:36:28;15.30;99.90
33095;DHT22;19459;53.044;8.910;2022-07-29T05:38:53;15.30;99.90
33095;DHT22;19459;53.044;8.910;2022-07-29T05:41:19;15.30;99.90
33095;DHT22;19459;53.044;8.910;2022-07-29T05:43:45;15.30;99.90
33095;DHT22;19459;53.044;8.910;2022-07-29T05:46:11;15.40;99.90
33095;DHT22;19459;53.044;8.910;2022-07-29T05:48:37;15.50;99.90
33095;DHT22;19459;53.044;8.910;2022-07-29T05:51:04;15.50;99.90
33095;DHT22;19459;53.044;8.910;2022-07-29T05:53:30;15.60;99.90
33095;DHT22;19459;53.044;8.910;2022-07-29T05:55:56;15.70;99.90
33095;DHT22;19459;53.044;8.910;2022-07-29T05:58:21;15.60;99.90
33095;DHT22;19459;53.044;8.910;2022-07-29T06:00:47;15.70;99.90
33095;DHT22;19459;53.044;8.910;2022-07-29T06:03:13;15.80;99.90
33095;DHT22;19459;53.044;8.910;2022-07-29T06:05:39;15.80;99.90
33095;DHT22;19459;53.044;8.910;2022-07-29T06:08:05;15.80;99.90
33095;DHT22;19459;53.044;8.910;2022-07-29T06:10:32;15.90;99.90
33095;DHT22;19459;53.044;8.910;2022-07-29T06:12:59;15.90;99.90
33095;DHT22;19459;53.044;8.910;2022-07-29T06:15:25;16.00;99.90
33095;DHT22;19459;53.044;8.910;2022-07-29T06:17:51;16.00;99.90
33095;DHT22;19459;53.044;8.910;2022-07-29T06:20:18;16.10;99.90
33095;DHT22;19459;53.044;8.910;2022-07-29T06:22:44;16.10;99.90
33095;DHT22;19459;53.044;8.910;2022-07-29T06:25:10;16.20;99.90
33095;DHT22;19459;53.044;8.910;2022-07-29T06:27:35;16.20;99.90
33095;DHT22;19459;53.044;8.910;2022-07-29T06:30:02;16.30;99.90
33095;DHT22;19459;53.044;8.910;2022-07-29T06:32:28;16.30;99.90
33095;DHT22;19459;53.044;8.910;2022-07-29T06:34:56;16.40;99.90
33095;DHT22;19459;53.044;8.910;2022-07-29T06:37:22;16.40;99.90
33095;DHT22;19459;53.044;8.910;2022-07-29T06:39:48;16.50;99.90
33095;DHT22;19459;53.044;8.910;2022-07-29T06:42:34;16.50;99.90
33095;DHT22;19459;53.044;8.910;2022-07-29T06:45:00;16.60;99.90
33095;DHT22;19459;53.044;8.910;2022-07-29T06:47:26;16.70;99.90
33095;DHT22;19459;53.044;8.910;2022-07-29T06:49:51;16.80;99.90
33095;DHT22;19459;53.044;8.910;2022-07-29T06:52:18;16.80;99.90
33095;DHT22;19459;53.044;8.910;2022-07-29T06:54:44;16.90;99.90
33095;DHT22;19459;53.044;8.910;2022-07-29T06:57:13;16.90;99.90
33095;DHT22;19459;53.044;8.910;2022-07-29T06:59:39;16.90;99.90
33095;DHT22;19459;53.044;8.910;2022-07-29T07:02:05;17.00;99.90
33095;DHT22;19459;53.044;8.910;2022-07-29T07:04:31;17.00;99.90
33095;DHT22;19459;53.044;8.910;2022-07-29T07:06:57;17.10;99.90
33095;DHT22;19459;53.044;8.910;2022-07-29T07:09:23;17.10;99.90
33095;DHT22;19459;53.044;8.910;2022-07-29T07:11:48;17.20;99.90
33095;DHT22;19459;53.044;8.910;2022-07-29T07:14:14;17.30;99.90
33095;DHT22;19459;53.044;8.910;2022-07-29T07:16:40;17.40;99.90
33095;DHT22;19459;53.044;8.910;2022-07-29T07:19:06;17.40;99.90
33095;DHT22;19459;53.044;8.910;2022-07-29T07:21:33;17.60;99.90
33095;DHT22;19459;53.044;8.910;2022-07-29T07:23:59;17.70;99.90
33095;DHT22;19459;53.044;8.910;2022-07-29T07:26:25;17.90;99.90
33095;DHT22;19459;53.044;8.910;2022-07-29T07:28:52;18.10;99.90
33095;DHT22;19459;53.044;8.910;2022-07-29T07:31:18;18.20;99.90
33095;DHT22;19459;53.044;8.910;2022-07-29T07:33:44;18.50;99.90
33095;DHT22;19459;53.044;8.910;2022-07-29T07:36:10;18.70;99.90
33095;DHT22;19459;53.044;8.910;2022-07-29T07:38:35;19.00;99.90
33095;DHT22;19459;53.044;8.910;2022-07-29T07:41:02;19.10;99.90
33095;DHT22;19459;53.044;8.910;2022-07-29T07:43:27;19.30;99.90
33095;DHT22;19459;53.044;8.910;2022-07-29T07:45:53;19.50;99.90
33095;DHT22;19459;53.044;8.910;2022-07-29T07:48:19;19.70;99.90
33095;DHT22;19459;53.044;8.910;2022-07-29T07:50:45;19.70;99.90
33095;DHT22;19459;53.044;8.910;2022-07-29T07:53:11;20.00;99.90
33095;DHT22;19459;53.044;8.910;2022-07-29T07:55:41;20.00;99.40
33095;DHT22;19459;53.044;8.910;2022-07-29T07:58:08;20.20;99.80
33095;DHT22;19459;53.044;8.910;2022-07-29T08:00:35;20.10;99.00
33095;DHT22;19459;53.044;8.910;2022-07-29T08:03:01;20.20;99.70
33095;DHT22;19459;53.044;8.910;2022-07-29T08:05:27;20.60;99.50
33095;DHT22;19459;53.044;8.910;2022-07-29T08:07:53;21.00;98.90
33095;DHT22;19459;53.044;8.910;2022-07-29T08:10:19;21.30;98.80
33095;DHT22;19459;53.044;8.910;2022-07-29T08:13:08;21.70;97.70
33095;DHT22;19459;53.044;8.910;2022-07-29T08:15:35;22.00;97.80
33095;DHT22;19459;53.044;8.910;2022-07-29T08:18:01;22.40;96.80
33095;DHT22;19459;53.044;8.910;2022-07-29T08:20:27;22.70;96.30
33095;DHT22;19459;53.044;8.910;2022-07-29T08:22:53;22.80;94.80
33095;DHT22;19459;53.044;8.910;2022-07-29T08:25:19;23.00;95.10
33095;DHT22;19459;53.044;8.910;2022-07-29T08:27:46;23.30;95.30
33095;DHT22;19459;53.044;8.910;2022-07-29T08:30:12;23.50;95.20
33095;DHT22;19459;53.044;8.910;2022-07-29T08:32:38;23.60;94.10
33095;DHT22;19459;53.044;8.910;2022-07-29T08:35:04;23.20;94.30
33095;DHT22;19459;53.044;8.910;2022-07-29T08:37:30;23.40;94.20
33095;DHT22;19459;53.044;8.910;2022-07-29T08:39:56;23.40;94.40
33095;DHT22;19459;53.044;8.910;2022-07-29T08:42:22;23.20;93.70
33095;DHT22;19459;53.044;8.910;2022-07-29T08:44:48;23.20;94.70
33095;DHT22;19459;53.044;8.910;2022-07-29T08:47:16;23.20;94.30
33095;DHT22;19459;53.044;8.910;2022-07-29T08:49:42;23.20;94.60
33095;DHT22;19459;53.044;8.910;2022-07-29T08:52:10;23.50;94.60
33095;DHT22;19459;53.044;8.910;2022-07-29T08:54:40;23.90;94.40
33095;DHT22;19459;53.044;8.910;2022-07-29T08:57:10;24.20;93.20
33095;DHT22;19459;53.044;8.910;2022-07-29T08:59:40;24.40;92.40
33095;DHT22;19459;53.044;8.910;2022-07-29T09:02:12;24.90;92.70
33095;DHT22;19459;53.044;8.910;2022-07-29T09:04:44;25.20;92.30
33095;DHT22;19459;53.044;8.910;2022-07-29T09:07:15;25.30;92.40
33095;DHT22;19459;53.044;8.910;2022-07-29T09:09:42;25.30;91.80
33095;DHT22;19459;53.044;8.910;2022-07-29T09:12:12;25.30;91.10
33095;DHT22;19459;53.044;8.910;2022-07-29T09:14:39;25.30;91.40
33095;DHT22;19459;53.044;8.910;2022-07-29T09:17:06;25.30;91.80
33095;DHT22;19459;53.044;8.910;2022-07-29T09:19:34;25.50;91.70
33095;DHT22;19459;53.044;8.910;2022-07-29T09:22:03;25.60;91.70
33095;DHT22;19459;53.044;8.910;2022-07-29T09:24:48;26.00;91.60
33095;DHT22;19459;53.044;8.910;2022-07-29T09:27:23;26.10;91.60
33095;DHT22;19459;53.044;8.910;2022-07-29T09:30:06;25.90;91.20
33095;DHT22;19459;53.044;8.910;2022-07-29T09:32:55;26.10;91.20
33095;DHT22;19459;53.044;8.910;2022-07-29T09:35:25;26.40;91.50
33095;DHT22;19459;53.044;8.910;2022-07-29T09:37:51;26.60;91.20
33095;DHT22;19459;53.044;8.910;2022-07-29T09:40:22;26.70;90.40
33095;DHT22;19459;53.044;8.910;2022-07-29T09:42:49;26.70;90.80
33095;DHT22;19459;53.044;8.910;2022-07-29T09:45:33;26.70;90.50
33095;DHT22;19459;53.044;8.910;2022-07-29T09:48:12;26.80;90.60
33095;DHT22;19459;53.044;8.910;2022-07-29T09:50:44;26.90;90.50
33095;DHT22;19459;53.044;8.910;2022-07-29T09:53:30;26.70;89.60
33095;DHT22;19459;53.044;8.910;2022-07-29T09:56:04;26.60;90.10
33095;DHT22;19459;53.044;8.910;2022-07-29T09:58:30;26.70;90.50
33095;DHT22;19459;53.044;8.910;2022-07-29T10:00:59;26.70;90.30
33095;DHT22;19459;53.044;8.910;2022-07-29T10:03:25;26.60;87.50
33095;DHT22;19459;53.044;8.910;2022-07-29T10:06:07;26.40;89.00
33095;DHT22;19459;53.044;8.910;2022-07-29T10:08:34;26.50;90.40
33095;DHT22;19459;53.044;8.910;2022-07-29T10:11:20;26.70;90.40
33095;DHT22;19459;53.044;8.910;2022-07-29T10:13:47;27.10;88.10
33095;DHT22;19459;53.044;8.910;2022-07-29T10:16:15;27.20;89.70
33095;DHT22;19459;53.044;8.910;2022-07-29T10:18:43;27.20;87.10
33095;DHT22;19459;53.044;8.910;2022-07-29T10:21:09;27.10;87.60
33095;DHT22;19459;53.044;8.910;2022-07-29T10:23:36;27.00;86.70
33095;DHT22;19459;53.044;8.910;2022-07-29T10:26:03;27.10;88.40
33095;DHT22;19459;53.044;8.910;2022-07-29T10:28:32;27.20;86.90
33095;DHT22;19459;53.044;8.910;2022-07-29T10:31:15;26.90;87.00
33095;DHT22;19459;53.044;8.910;2022-07-29T10:34:02;27.00;88.70
33095;DHT22;19459;53.044;8.910;2022-07-29T10:36:49;27.00;86.60
33095;DHT22;19459;53.044;8.910;2022-07-29T10:42:22;26.90;87.00
33095;DHT22;19459;53.044;8.910;2022-07-29T10:44:51;27.10;88.60
33095;DHT22;19459;53.044;8.910;2022-07-29T10:47:25;27.10;87.70
33095;DHT22;19459;53.044;8.910;2022-07-29T10:50:05;27.30;86.60
33095;DHT22;19459;53.044;8.910;2022-07-29T10:55:47;28.40;85.70
33095;DHT22;19459;53.044;8.910;2022-07-29T10:58:23;29.00;82.30
33095;DHT22;19459;53.044;8.910;2022-07-29T11:00:51;29.40;82.90
33095;DHT22;19459;53.044;8.910;2022-07-29T11:03:47;29.50;81.90
33095;DHT22;19459;53.044;8.910;2022-07-29T11:06:14;29.70;82.30
33095;DHT22;19459;53.044;8.910;2022-07-29T11:08:40;29.60;83.70
33095;DHT22;19459;53.044;8.910;2022-07-29T11:16:14;28.50;81.10
33095;DHT22;19459;53.044;8.910;2022-07-29T11:21:39;27.80;82.30
33095;DHT22;19459;53.044;8.910;2022-07-29T11:24:29;27.80;82.90
33095;DHT22;19459;53.044;8.910;2022-07-29T11:27:15;27.90;81.90
33095;DHT22;19459;53.044;8.910;2022-07-29T11:29:57;28.20;80.90
33095;DHT22;19459;53.044;8.910;2022-07-29T11:32:36;28.90;81.50
33095;DHT22;19459;53.044;8.910;2022-07-29T11:35:19;29.30;81.30
33095;DHT22;19459;53.044;8.910;2022-07-29T11:43:55;29.10;81.00
33095;DHT22;19459;53.044;8.910;2022-07-29T11:49:27;29.40;78.40
33095;DHT22;19459;53.044;8.910;2022-07-29T11:51:54;30.00;80.40
33095;DHT22;19459;53.044;8.910;2022-07-29T11:54:26;30.20;75.90
33095;DHT22;19459;53.044;8.910;2022-07-29T11:56:59;30.30;77.30
33095;DHT22;19459;53.044;8.910;2022-07-29T11:59:25;30.20;80.20
33095;DHT22;19459;53.044;8.910;2022-07-29T12:01:56;30.40;79.20
33095;DHT22;19459;53.044;8.910;2022-07-29T12:04:23;30.30;79.10
33095;DHT22;19459;53.044;8.910;2022-07-29T12:06:53;30.00;78.30
33095;DHT22;19459;53.044;8.910;2022-07-29T12:09:20;29.90;77.30
33095;DHT22;19459;53.044;8.910;2022-07-29T12:11:47;29.60;78.30
33095;DHT22;19459;53.044;8.910;2022-07-29T12:14:30;28.90;77.50
33095;DHT22;19459;53.044;8.910;2022-07-29T12:16:58;28.70;80.10
33095;DHT22;19459;53.044;8.910;2022-07-29T12:19:24;28.60;80.10
33095;DHT22;19459;53.044;8.910;2022-07-29T12:21:52;28.50;80.90
33095;DHT22;19459;53.044;8.910;2022-07-29T12:24:20;28.40;80.70
33095;DHT22;19459;53.044;8.910;2022-07-29T12:26:57;28.20;79.20
33095;DHT22;19459;53.044;8.910;2022-07-29T12:29:24;28.10;80.90
33095;DHT22;19459;53.044;8.910;2022-07-29T12:31:53;28.20;80.70
33095;DHT22;19459;53.044;8.910;2022-07-29T12:34:24;28.20;81.40
33095;DHT22;19459;53.044;8.910;2022-07-29T12:36:52;28.20;80.30
33095;DHT22;19459;53.044;8.910;2022-07-29T12:39:18;28.20;80.70
33095;DHT22;19459;53.044;8.910;2022-07-29T12:41:45;28.20;80.70
33095;DHT22;19459;53.044;8.910;2022-07-29T12:44:11;28.20;80.60
33095;DHT22;19459;53.044;8.910;2022-07-29T12:46:37;28.10;81.00
33095;DHT22;19459;53.044;8.910;2022-07-29T12:49:03;28.20;80.80
33095;DHT22;19459;53.044;8.910;2022-07-29T12:51:39;28.30;80.20
33095;DHT22;19459;53.044;8.910;2022-07-29T12:54:15;28.30;79.90
33095;DHT22;19459;53.044;8.910;2022-07-29T12:56:43;28.40;81.50
33095;DHT22;19459;53.044;8.910;2022-07-29T12:59:13;28.50;80.10
33095;DHT22;19459;53.044;8.910;2022-07-29T13:01:49;28.60;80.90
33095;DHT22;19459;53.044;8.910;2022-07-29T13:04:32;28.80;80.60
33095;DHT22;19459;53.044;8.910;2022-07-29T13:07:03;28.60;79.50
33095;DHT22;19459;53.044;8.910;2022-07-29T13:09:42;28.40;80.60
33095;DHT22;19459;53.044;8.910;2022-07-29T13:12:11;28.20;81.20
33095;DHT22;19459;53.044;8.910;2022-07-29T13:14:47;28.10;80.70
33095;DHT22;19459;53.044;8.910;2022-07-29T13:17:19;27.90;80.20
33095;DHT22;19459;53.044;8.910;2022-07-29T13:19:50;27.70;80.70
33095;DHT22;19459;53.044;8.910;2022-07-29T13:22:22;27.40;81.40
33095;DHT22;19459;53.044;8.910;2022-07-29T13:27:18;27.10;83.70
33095;DHT22;19459;53.044;8.910;2022-07-29T13:29:48;27.10;82.60
33095;DHT22;19459;53.044;8.910;2022-07-29T13:32:18;27.10;82.90
33095;DHT22;19459;53.044;8.910;2022-07-29T13:34:44;27.00;82.00
33095;DHT22;19459;53.044;8.910;2022-07-29T13:37:10;27.00;81.90
33095;DHT22;19459;53.044;8.910;2022-07-29T13:39:36;27.00;82.90
33095;DHT22;19459;53.044;8.910;2022-07-29T13:42:03;27.00;83.40
33095;DHT22;19459;53.044;8.910;2022-07-29T13:44:29;27.00;84.60
33095;DHT22;19459;53.044;8.910;2022-07-29T13:46:55;27.00;84.10
33095;DHT22;19459;53.044;8.910;2022-07-29T13:49:21;26.90;84.60
33095;DHT22;19459;53.044;8.910;2022-07-29T13:51:49;26.80;84.30
33095;DHT22;19459;53.044;8.910;2022-07-29T13:54:15;26.70;84.30
33095;DHT22;19459;53.044;8.910;2022-07-29T13:56:41;26.60;83.70
33095;DHT22;19459;53.044;8.910;2022-07-29T13:59:07;26.50;84.30
33095;DHT22;19459;53.044;8.910;2022-07-29T14:01:36;26.50;85.30
33095;DHT22;19459;53.044;8.910;2022-07-29T14:04:02;26.50;84.30
33095;DHT22;19459;53.044;8.910;2022-07-29T14:06:28;26.40;84.50
33095;DHT22;19459;53.044;8.910;2022-07-29T14:08:54;26.40;84.20
33095;DHT22;19459;53.044;8.910;2022-07-29T14:11:21;26.40;84.60
33095;DHT22;19459;53.044;8.910;2022-07-29T14:13:46;26.40;83.60
33095;DHT22;19459;53.044;8.910;2022-07-29T14:16:12;26.40;84.80
33095;DHT22;19459;53.044;8.910;2022-07-29T14:18:38;26.50;84.80
33095;DHT22;19459;53.044;8.910;2022-07-29T14:21:04;26.50;85.00
33095;DHT22;19459;53.044;8.910;2022-07-29T14:23:30;26.60;86.10
33095;DHT22;19459;53.044;8.910;2022-07-29T14:25:55;26.80;85.30
33095;DHT22;19459;53.044;8.910;2022-07-29T14:28:21;26.90;84.30
33095;DHT22;19459;53.044;8.910;2022-07-29T14:30:47;27.00;83.90
33095;DHT22;19459;53.044;8.910;2022-07-29T14:33:13;26.90;83.10
33095;DHT22;19459;53.044;8.910;2022-07-29T14:35:39;26.90;85.90
33095;DHT22;19459;53.044;8.910;2022-07-29T14:38:05;26.90;83.80
33095;DHT22;19459;53.044;8.910;2022-07-29T14:40:31;27.00;86.70
33095;DHT22;19459;53.044;8.910;2022-07-29T14:42:57;26.90;83.90
33095;DHT22;19459;53.044;8.910;2022-07-29T14:45:23;26.80;84.20
33095;DHT22;19459;53.044;8.910;2022-07-29T14:47:50;26.70;83.50
33095;DHT22;19459;53.044;8.910;2022-07-29T14:50:16;26.60;83.90
33095;DHT22;19459;53.044;8.910;2022-07-29T14:52:43;26.50;84.00
33095;DHT22;19459;53.044;8.910;2022-07-29T14:55:09;26.40;84.30
33095;DHT22;19459;53.044;8.910;2022-07-29T14:57:35;26.20;83.10
33095;DHT22;19459;53.044;8.910;2022-07-29T15:00:02;26.10;83.40
33095;DHT22;19459;53.044;8.910;2022-07-29T15:02:29;25.90;83.90
33095;DHT22;19459;53.044;8.910;2022-07-29T15:04:54;25.80;85.10
33095;DHT22;19459;53.044;8.910;2022-07-29T15:07:20;25.80;86.10
33095;DHT22;19459;53.044;8.910;2022-07-29T15:09:46;25.60;85.10
33095;DHT22;19459;53.044;8.910;2022-07-29T15:12:11;25.50;85.00
33095;DHT22;19459;53.044;8.910;2022-07-29T15:14:37;25.50;85.00
33095;DHT22;19459;53.044;8.910;2022-07-29T15:17:03;25.30;84.80
33095;DHT22;19459;53.044;8.910;2022-07-29T15:19:29;25.30;84.70
33095;DHT22;19459;53.044;8.910;2022-07-29T15:21:55;25.30;85.40
33095;DHT22;19459;53.044;8.910;2022-07-29T15:24:20;25.20;86.00
33095;DHT22;19459;53.044;8.910;2022-07-29T15:26:47;25.10;85.20
33095;DHT22;19459;53.044;8.910;2022-07-29T15:29:13;25.10;85.00
33095;DHT22;19459;53.044;8.910;2022-07-29T15:31:38;25.00;85.10
33095;DHT22;19459;53.044;8.910;2022-07-29T15:34:04;25.00;83.90
33095;DHT22;19459;53.044;8.910;2022-07-29T15:36:31;25.00;85.90
33095;DHT22;19459;53.044;8.910;2022-07-29T15:38:57;24.90;84.80
33095;DHT22;19459;53.044;8.910;2022-07-29T15:41:22;24.90;84.40
33095;DHT22;19459;53.044;8.910;2022-07-29T15:43:48;25.00;85.50
33095;DHT22;19459;53.044;8.910;2022-07-29T15:46:17;24.90;85.90
33095;DHT22;19459;53.044;8.910;2022-07-29T15:49:04;24.90;85.70
33095;DHT22;19459;53.044;8.910;2022-07-29T15:51:30;24.90;86.50
33095;DHT22;19459;53.044;8.910;2022-07-29T15:53:57;24.90;86.90
33095;DHT22;19459;53.044;8.910;2022-07-29T15:56:23;24.90;86.00
33095;DHT22;19459;53.044;8.910;2022-07-29T15:58:49;24.90;86.80
33095;DHT22;19459;53.044;8.910;2022-07-29T16:01:16;24.90;85.80
33095;DHT22;19459;53.044;8.910;2022-07-29T16:03:42;24.80;87.60
33095;DHT22;19459;53.044;8.910;2022-07-29T16:06:08;24.80;86.50
33095;DHT22;19459;53.044;8.910;2022-07-29T16:08:34;24.70;86.60
33095;DHT22;19459;53.044;8.910;2022-07-29T16:10:59;24.80;86.20
33095;DHT22;19459;53.044;8.910;2022-07-29T16:13:25;24.70;86.30
33095;DHT22;19459;53.044;8.910;2022-07-29T16:15:51;24.80;85.60
33095;DHT22;19459;53.044;8.910;2022-07-29T16:18:17;24.80;85.90
33095;DHT22;19459;53.044;8.910;2022-07-29T16:20:42;24.80;86.00